sensor_id;sensor_type;location;lat;lon;timestamp;temperature;humidity
52765;DHT22;38650;44.536;18.664;2023-02-18T00:00:26;7.10;73.20
52765;DHT22;38650;44.536;18.664;2023-02-18T00:02:52;7.10;73.90
52765;DHT22;38650;44.536;18.664;2023-02-18T00:05:20;7.10;73.20
52765;DHT22;38650;44.536;18.664;2023-02-18T00:07:46;7.20;73.00
52765;DHT22;38650;44.536;18.664;2023-02-18T00:10:13;7.20;72.90
52765;DHT22;38650;44.536;18.664;2023-02-18T00:12:39;7.20;73.30
52765;DHT22;38650;44.536;18.664;2023-02-18T00:15:06;7.10;73.10
52765;DHT22;38650;44.536;18.664;2023-02-18T00:17:32;7.00;73.60
52765;DHT22;38650;44.536;18.664;2023-02-18T00:19:58;7.00;74.40
52765;DHT22;38650;44.536;18.664;2023-02-18T00:22:24;6.80;75.30
52765;DHT22;38650;44.536;18.664;2023-02-18T00:24:50;6.80;76.10
52765;DHT22;38650;44.536;18.664;2023-02-18T00:27:15;6.90;75.70
52765;DHT22;38650;44.536;18.664;2023-02-18T00:29:41;7.00;75.70
52765;DHT22;38650;44.536;18.664;2023-02-18T00:32:07;6.90;75.20
52765;DHT22;38650;44.536;18.664;2023-02-18T00:34:33;6.90;75.20
52765;DHT22;38650;44.536;18.664;2023-02-18T00:36:59;6.70;76.10
52765;DHT22;38650;44.536;18.664;2023-02-18T00:39:24;6.70;76.70
52765;DHT22;38650;44.536;18.664;2023-02-18T00:41:50;6.80;76.20
52765;DHT22;38650;44.536;18.664;2023-02-18T00:44:16;6.90;75.80
52765;DHT22;38650;44.536;18.664;2023-02-18T00:46:41;6.80;75.60
52765;DHT22;38650;44.536;18.664;2023-02-18T00:49:07;6.90;75.50
52765;DHT22;38650;44.536;18.664;2023-02-18T00:51:34;6.80;75.80
52765;DHT22;38650;44.536;18.664;2023-02-18T00:54:00;6.70;78.10
52765;DHT22;38650;44.536;18.664;2023-02-18T00:56:26;6.70;78.80
52765;DHT22;38650;44.536;18.664;2023-02-18T00:58:51;6.70;78.40
52765;DHT22;38650;44.536;18.664;2023-02-18T01:01:18;6.90;78.50
52765;DHT22;38650;44.536;18.664;2023-02-18T01:03:44;7.00;77.50
52765;DHT22;38650;44.536;18.664;2023-02-18T01:06:11;6.90;77.70
52765;DHT22;38650;44.536;18.664;2023-02-18T01:08:37;7.00;77.70
52765;DHT22;38650;44.536;18.664;2023-02-18T01:11:04;7.10;77.40
52765;DHT22;38650;44.536;18.664;2023-02-18T01:13:30;7.10;76.40
52765;DHT22;38650;44.536;18.664;2023-02-18T01:15:57;7.10;76.70
52765;DHT22;38650;44.536;18.664;2023-02-18T01:18:24;7.10;76.40
52765;DHT22;38650;44.536;18.664;2023-02-18T01:20:50;7.10;77.30
52765;DHT22;38650;44.536;18.664;2023-02-18T01:23:16;7.20;77.20
52765;DHT22;38650;44.536;18.664;2023-02-18T01:25:42;7.20;77.20
52765;DHT22;38650;44.536;18.664;2023-02-18T01:28:09;7.30;77.70
52765;DHT22;38650;44.536;18.664;2023-02-18T01:30:35;7.30;77.40
52765;DHT22;38650;44.536;18.664;2023-02-18T01:33:01;7.30;77.00
52765;DHT22;38650;44.536;18.664;2023-02-18T01:35:27;7.40;77.20
52765;DHT22;38650;44.536;18.664;2023-02-18T01:37:52;7.40;77.30
52765;DHT22;38650;44.536;18.664;2023-02-18T01:40:22;7.40;77.10
52765;DHT22;38650;44.536;18.664;2023-02-18T01:42:48;7.30;76.60
52765;DHT22;38650;44.536;18.664;2023-02-18T01:51:04;7.50;76.90
52765;DHT22;38650;44.536;18.664;2023-02-18T01:54:36;7.60;77.60
52765;DHT22;38650;44.536;18.664;2023-02-18T01:57:26;7.60;76.30
52765;DHT22;38650;44.536;18.664;2023-02-18T02:00:02;7.50;76.10
52765;DHT22;38650;44.536;18.664;2023-02-18T02:02:32;7.50;76.60
52765;DHT22;38650;44.536;18.664;2023-02-18T02:04:59;7.50;76.70
52765;DHT22;38650;44.536;18.664;2023-02-18T02:07:26;7.50;77.00
52765;DHT22;38650;44.536;18.664;2023-02-18T02:09:53;7.60;77.10
52765;DHT22;38650;44.536;18.664;2023-02-18T02:32:10;7.70;77.30
52765;DHT22;38650;44.536;18.664;2023-02-18T02:37:17;7.70;77.10
52765;DHT22;38650;44.536;18.664;2023-02-18T02:50:50;7.70;77.20
52765;DHT22;38650;44.536;18.664;2023-02-18T02:53:27;7.70;77.00
52765;DHT22;38650;44.536;18.664;2023-02-18T02:55:54;7.80;77.20
52765;DHT22;38650;44.536;18.664;2023-02-18T02:58:21;7.80;77.40
52765;DHT22;38650;44.536;18.664;2023-02-18T03:03:34;7.80;77.00
52765;DHT22;38650;44.536;18.664;2023-02-18T03:09:20;7.80;77.70
52765;DHT22;38650;44.536;18.664;2023-02-18T03:17:30;7.70;77.50
52765;DHT22;38650;44.536;18.664;2023-02-18T03:20:12;7.80;77.60
52765;DHT22;38650;44.536;18.664;2023-02-18T03:22:44;7.70;78.10
52765;DHT22;38650;44.536;18.664;2023-02-18T03:25:12;7.70;77.40
52765;DHT22;38650;44.536;18.664;2023-02-18T03:27:54;7.80;77.50
52765;DHT22;38650;44.536;18.664;2023-02-18T03:30:24;7.80;77.40
52765;DHT22;38650;44.536;18.664;2023-02-18T03:32:58;7.70;77.70
52765;DHT22;38650;44.536;18.664;2023-02-18T03:35:25;7.70;77.50
52765;DHT22;38650;44.536;18.664;2023-02-18T03:38:13;7.70;77.20
52765;DHT22;38650;44.536;18.664;2023-02-18T03:40:41;7.70;77.30
52765;DHT22;38650;44.536;18.664;2023-02-18T03:43:06;7.60;77.80
52765;DHT22;38650;44.536;18.664;2023-02-18T03:45:32;7.50;78.70
52765;DHT22;38650;44.536;18.664;2023-02-18T03:47:58;7.60;78.40
52765;DHT22;38650;44.536;18.664;2023-02-18T03:50:23;7.60;78.40
52765;DHT22;38650;44.536;18.664;2023-02-18T03:52:49;7.60;78.50
52765;DHT22;38650;44.536;18.664;2023-02-18T03:55:15;7.60;77.90
52765;DHT22;38650;44.536;18.664;2023-02-18T03:57:41;7.50;78.10
52765;DHT22;38650;44.536;18.664;2023-02-18T04:00:07;7.50;78.00
52765;DHT22;38650;44.536;18.664;2023-02-18T04:02:33;7.60;78.40
52765;DHT22;38650;44.536;18.664;2023-02-18T04:04:59;7.50;78.90
52765;DHT22;38650;44.536;18.664;2023-02-18T04:07:25;7.60;79.40
52765;DHT22;38650;44.536;18.664;2023-02-18T04:09:50;7.60;79.60
52765;DHT22;38650;44.536;18.664;2023-02-18T04:12:16;7.60;79.70
52765;DHT22;38650;44.536;18.664;2023-02-18T04:14:42;7.60;79.90
52765;DHT22;38650;44.536;18.664;2023-02-18T04:17:08;7.60;80.70
52765;DHT22;38650;44.536;18.664;2023-02-18T04:19:34;7.60;80.10
52765;DHT22;38650;44.536;18.664;2023-02-18T04:22:00;7.70;80.60
52765;DHT22;38650;44.536;18.664;2023-02-18T04:24:26;7.70;80.60
52765;DHT22;38650;44.536;18.664;2023-02-18T04:26:52;7.70;80.70
52765;DHT22;38650;44.536;18.664;2023-02-18T04:29:17;7.80;80.70
52765;DHT22;38650;44.536;18.664;2023-02-18T04:31:43;7.80;80.30
52765;DHT22;38650;44.536;18.664;2023-02-18T04:34:09;7.80;80.00
52765;DHT22;38650;44.536;18.664;2023-02-18T04:36:34;7.80;79.70
52765;DHT22;38650;44.536;18.664;2023-02-18T04:39:00;7.80;79.40
52765;DHT22;38650;44.536;18.664;2023-02-18T04:41:26;7.80;80.00
52765;DHT22;38650;44.536;18.664;2023-02-18T04:43:51;7.80;80.00
52765;DHT22;38650;44.536;18.664;2023-02-18T04:46:17;7.70;80.30
52765;DHT22;38650;44.536;18.664;2023-02-18T04:48:43;7.60;80.40
52765;DHT22;38650;44.536;18.664;2023-02-18T04:51:09;7.50;80.70
52765;DHT22;38650;44.536;18.664;2023-02-18T04:53:34;7.50;80.80
52765;DHT22;38650;44.536;18.664;2023-02-18T04:56:00;7.40;81.30
52765;DHT22;38650;44.536;18.664;2023-02-18T04:58:26;7.40;82.40
52765;DHT22;38650;44.536;18.664;2023-02-18T05:00:52;7.30;82.60
52765;DHT22;38650;44.536;18.664;2023-02-18T05:03:18;7.20;83.90
52765;DHT22;38650;44.536;18.664;2023-02-18T05:05:44;7.20;85.20
52765;DHT22;38650;44.536;18.664;2023-02-18T05:08:11;7.20;85.00
52765;DHT22;38650;44.536;18.664;2023-02-18T05:10:37;7.20;84.70
52765;DHT22;38650;44.536;18.664;2023-02-18T05:13:03;7.20;85.50
52765;DHT22;38650;44.536;18.664;2023-02-18T05:15:29;7.20;86.10
52765;DHT22;38650;44.536;18.664;2023-02-18T05:17:55;7.20;85.00
52765;DHT22;38650;44.536;18.664;2023-02-18T05:20:20;7.20;84.70
52765;DHT22;38650;44.536;18.664;2023-02-18T05:22:46;7.10;85.00
52765;DHT22;38650;44.536;18.664;2023-02-18T05:25:12;7.10;85.40
52765;DHT22;38650;44.536;18.664;2023-02-18T05:27:37;7.10;85.80
52765;DHT22;38650;44.536;18.664;2023-02-18T05:30:04;7.10;86.20
52765;DHT22;38650;44.536;18.664;2023-02-18T05:32:29;7.10;85.80
52765;DHT22;38650;44.536;18.664;2023-02-18T05:34:55;7.10;85.40
52765;DHT22;38650;44.536;18.664;2023-02-18T05:37:21;7.00;87.20
52765;DHT22;38650;44.536;18.664;2023-02-18T05:39:46;6.90;88.40
52765;DHT22;38650;44.536;18.664;2023-02-18T05:42:12;6.90;88.60
52765;DHT22;38650;44.536;18.664;2023-02-18T05:44:38;6.90;88.30
52765;DHT22;38650;44.536;18.664;2023-02-18T05:47:09;6.90;88.40
52765;DHT22;38650;44.536;18.664;2023-02-18T05:49:35;6.90;89.40
52765;DHT22;38650;44.536;18.664;2023-02-18T05:52:02;6.70;90.80
52765;DHT22;38650;44.536;18.664;2023-02-18T05:54:28;6.70;91.40
52765;DHT22;38650;44.536;18.664;2023-02-18T05:56:54;6.70;91.40
52765;DHT22;38650;44.536;18.664;2023-02-18T05:59:20;6.80;91.20
52765;DHT22;38650;44.536;18.664;2023-02-18T06:01:46;6.70;91.80
52765;DHT22;38650;44.536;18.664;2023-02-18T06:04:13;6.70;92.00
52765;DHT22;38650;44.536;18.664;2023-02-18T06:06:39;6.80;91.90
52765;DHT22;38650;44.536;18.664;2023-02-18T06:09:04;6.90;91.60
52765;DHT22;38650;44.536;18.664;2023-02-18T06:11:31;6.90;91.80
52765;DHT22;38650;44.536;18.664;2023-02-18T06:13:56;6.80;92.70
52765;DHT22;38650;44.536;18.664;2023-02-18T06:16:22;6.70;93.20
52765;DHT22;38650;44.536;18.664;2023-02-18T06:18:48;6.80;93.20
52765;DHT22;38650;44.536;18.664;2023-02-18T06:21:14;6.90;93.00
52765;DHT22;38650;44.536;18.664;2023-02-18T06:23:40;7.00;92.90
52765;DHT22;38650;44.536;18.664;2023-02-18T06:26:06;7.00;92.40
52765;DHT22;38650;44.536;18.664;2023-02-18T06:28:31;6.90;93.50
52765;DHT22;38650;44.536;18.664;2023-02-18T06:30:57;6.70;94.60
52765;DHT22;38650;44.536;18.664;2023-02-18T06:33:23;6.70;95.60
52765;DHT22;38650;44.536;18.664;2023-02-18T06:36:00;6.90;94.90
52765;DHT22;38650;44.536;18.664;2023-02-18T06:38:27;7.00;94.40
52765;DHT22;38650;44.536;18.664;2023-02-18T06:40:52;7.00;94.70
52765;DHT22;38650;44.536;18.664;2023-02-18T06:43:19;7.10;94.70
52765;DHT22;38650;44.536;18.664;2023-02-18T06:45:45;7.20;94.10
52765;DHT22;38650;44.536;18.664;2023-02-18T06:48:12;7.40;93.20
52765;DHT22;38650;44.536;18.664;2023-02-18T06:50:39;7.50;92.80
52765;DHT22;38650;44.536;18.664;2023-02-18T06:53:04;7.60;92.60
52765;DHT22;38650;44.536;18.664;2023-02-18T06:55:30;7.70;93.40
52765;DHT22;38650;44.536;18.664;2023-02-18T06:57:56;7.90;92.50
52765;DHT22;38650;44.536;18.664;2023-02-18T07:00:21;8.10;91.70
52765;DHT22;38650;44.536;18.664;2023-02-18T07:02:48;8.20;91.20
52765;DHT22;38650;44.536;18.664;2023-02-18T07:05:13;8.30;90.60
52765;DHT22;38650;44.536;18.664;2023-02-18T07:07:39;8.40;90.00
52765;DHT22;38650;44.536;18.664;2023-02-18T07:10:05;8.40;88.80
52765;DHT22;38650;44.536;18.664;2023-02-18T07:12:32;8.40;89.70
52765;DHT22;38650;44.536;18.664;2023-02-18T07:14:57;8.40;90.10
52765;DHT22;38650;44.536;18.664;2023-02-18T07:17:23;8.70;89.60
52765;DHT22;38650;44.536;18.664;2023-02-18T07:19:49;8.90;88.40
52765;DHT22;38650;44.536;18.664;2023-02-18T07:22:16;9.10;86.60
52765;DHT22;38650;44.536;18.664;2023-02-18T07:24:42;9.20;85.20
52765;DHT22;38650;44.536;18.664;2023-02-18T07:27:08;9.60;83.90
52765;DHT22;38650;44.536;18.664;2023-02-18T07:29:34;9.50;82.20
52765;DHT22;38650;44.536;18.664;2023-02-18T07:31:59;9.70;82.80
52765;DHT22;38650;44.536;18.664;2023-02-18T07:34:25;10.50;80.60
52765;DHT22;38650;44.536;18.664;2023-02-18T07:36:51;10.70;78.90
52765;DHT22;38650;44.536;18.664;2023-02-18T07:39:16;12.00;78.80
52765;DHT22;38650;44.536;18.664;2023-02-18T07:41:46;14.50;72.90
52765;DHT22;38650;44.536;18.664;2023-02-18T07:44:12;16.20;64.40
52765;DHT22;38650;44.536;18.664;2023-02-18T07:46:39;17.60;58.70
52765;DHT22;38650;44.536;18.664;2023-02-18T07:49:05;17.50;54.30
52765;DHT22;38650;44.536;18.664;2023-02-18T07:51:31;17.40;54.30
52765;DHT22;38650;44.536;18.664;2023-02-18T07:53:57;17.20;53.70
52765;DHT22;38650;44.536;18.664;2023-02-18T07:56:22;16.50;53.10
52765;DHT22;38650;44.536;18.664;2023-02-18T07:58:48;15.30;54.50
52765;DHT22;38650;44.536;18.664;2023-02-18T08:01:14;14.00;57.40
52765;DHT22;38650;44.536;18.664;2023-02-18T08:03:40;13.10;59.50
52765;DHT22;38650;44.536;18.664;2023-02-18T08:06:06;12.60;62.20
52765;DHT22;38650;44.536;18.664;2023-02-18T08:08:33;12.40;62.90
52765;DHT22;38650;44.536;18.664;2023-02-18T08:11:01;12.20;64.50
52765;DHT22;38650;44.536;18.664;2023-02-18T08:13:28;11.90;64.60
52765;DHT22;38650;44.536;18.664;2023-02-18T08:15:55;11.80;66.30
52765;DHT22;38650;44.536;18.664;2023-02-18T08:18:22;11.90;67.20
52765;DHT22;38650;44.536;18.664;2023-02-18T08:20:48;12.10;66.30
52765;DHT22;38650;44.536;18.664;2023-02-18T08:23:17;12.30;65.60
52765;DHT22;38650;44.536;18.664;2023-02-18T08:25:48;12.60;65.20
52765;DHT22;38650;44.536;18.664;2023-02-18T08:28:14;12.90;64.30
52765;DHT22;38650;44.536;18.664;2023-02-18T08:30:44;12.90;63.20
52765;DHT22;38650;44.536;18.664;2023-02-18T08:33:10;13.00;62.70
52765;DHT22;38650;44.536;18.664;2023-02-18T08:35:36;13.30;63.50
52765;DHT22;38650;44.536;18.664;2023-02-18T08:38:02;14.50;62.20
52765;DHT22;38650;44.536;18.664;2023-02-18T08:40:27;15.30;58.30
52765;DHT22;38650;44.536;18.664;2023-02-18T08:42:53;15.50;57.90
52765;DHT22;38650;44.536;18.664;2023-02-18T08:45:19;16.00;57.90
52765;DHT22;38650;44.536;18.664;2023-02-18T08:47:44;16.80;56.20
52765;DHT22;38650;44.536;18.664;2023-02-18T08:50:10;17.10;55.40
52765;DHT22;38650;44.536;18.664;2023-02-18T08:52:36;16.90;54.10
52765;DHT22;38650;44.536;18.664;2023-02-18T08:55:04;16.70;54.50
52765;DHT22;38650;44.536;18.664;2023-02-18T08:57:29;16.70;54.30
52765;DHT22;38650;44.536;18.664;2023-02-18T08:59:55;16.60;54.40
52765;DHT22;38650;44.536;18.664;2023-02-18T09:02:21;16.40;55.40
52765;DHT22;38650;44.536;18.664;2023-02-18T09:04:47;16.70;54.50
52765;DHT22;38650;44.536;18.664;2023-02-18T09:07:12;16.70;54.60
52765;DHT22;38650;44.536;18.664;2023-02-18T09:09:38;16.70;55.30
52765;DHT22;38650;44.536;18.664;2023-02-18T09:12:04;16.70;54.70
52765;DHT22;38650;44.536;18.664;2023-02-18T09:14:30;16.70;54.30
52765;DHT22;38650;44.536;18.664;2023-02-18T09:16:56;16.70;53.70
52765;DHT22;38650;44.536;18.664;2023-02-18T09:19:23;16.40;54.90
52765;DHT22;38650;44.536;18.664;2023-02-18T09:21:48;16.50;54.60
52765;DHT22;38650;44.536;18.664;2023-02-18T09:24:16;16.60;53.40
52765;DHT22;38650;44.536;18.664;2023-02-18T09:26:41;16.50;53.70
52765;DHT22;38650;44.536;18.664;2023-02-18T09:29:08;16.80;53.00
52765;DHT22;38650;44.536;18.664;2023-02-18T09:31:34;17.10;52.90
52765;DHT22;38650;44.536;18.664;2023-02-18T09:34:01;17.30;53.30
52765;DHT22;38650;44.536;18.664;2023-02-18T09:36:27;17.30;52.40
52765;DHT22;38650;44.536;18.664;2023-02-18T09:38:54;17.50;52.10
52765;DHT22;38650;44.536;18.664;2023-02-18T09:44:24;17.90;48.90
52765;DHT22;38650;44.536;18.664;2023-02-18T09:46:56;18.20;47.40
52765;DHT22;38650;44.536;18.664;2023-02-18T09:49:29;18.30;47.90
52765;DHT22;38650;44.536;18.664;2023-02-18T09:52:10;18.80;47.20
52765;DHT22;38650;44.536;18.664;2023-02-18T09:54:36;19.20;46.20
52765;DHT22;38650;44.536;18.664;2023-02-18T09:57:03;19.60;45.40
52765;DHT22;38650;44.536;18.664;2023-02-18T09:59:30;20.00;45.10
52765;DHT22;38650;44.536;18.664;2023-02-18T10:01:56;20.20;43.90
52765;DHT22;38650;44.536;18.664;2023-02-18T10:04:35;20.50;43.80
52765;DHT22;38650;44.536;18.664;2023-02-18T10:07:04;20.60;43.30
52765;DHT22;38650;44.536;18.664;2023-02-18T10:09:34;20.60;43.00
52765;DHT22;38650;44.536;18.664;2023-02-18T10:12:14;20.70;42.30
52765;DHT22;38650;44.536;18.664;2023-02-18T10:14:42;20.70;42.20
52765;DHT22;38650;44.536;18.664;2023-02-18T10:17:11;20.80;42.20
52765;DHT22;38650;44.536;18.664;2023-02-18T10:19:39;20.90;42.60
52765;DHT22;38650;44.536;18.664;2023-02-18T10:22:07;21.10;42.20
52765;DHT22;38650;44.536;18.664;2023-02-18T10:24:40;21.50;42.00
52765;DHT22;38650;44.536;18.664;2023-02-18T10:27:17;21.70;40.40
52765;DHT22;38650;44.536;18.664;2023-02-18T10:29:44;21.80;41.00
52765;DHT22;38650;44.536;18.664;2023-02-18T10:32:20;21.90;41.60
52765;DHT22;38650;44.536;18.664;2023-02-18T10:35:16;22.20;42.20
52765;DHT22;38650;44.536;18.664;2023-02-18T10:38:08;22.30;42.30
52765;DHT22;38650;44.536;18.664;2023-02-18T10:44:10;22.50;38.50
52765;DHT22;38650;44.536;18.664;2023-02-18T10:46:46;22.60;38.40
52765;DHT22;38650;44.536;18.664;2023-02-18T10:51:59;23.00;39.50
52765;DHT22;38650;44.536;18.664;2023-02-18T10:54:27;23.10;38.70
52765;DHT22;38650;44.536;18.664;2023-02-18T10:57:20;23.30;38.00
52765;DHT22;38650;44.536;18.664;2023-02-18T11:02:37;23.20;37.40
52765;DHT22;38650;44.536;18.664;2023-02-18T11:05:22;23.50;37.10
52765;DHT22;38650;44.536;18.664;2023-02-18T11:07:55;23.30;38.00
52765;DHT22;38650;44.536;18.664;2023-02-18T11:10:31;23.20;39.30
52765;DHT22;38650;44.536;18.664;2023-02-18T11:13:03;23.40;36.80
52765;DHT22;38650;44.536;18.664;2023-02-18T11:15:30;23.60;36.00
52765;DHT22;38650;44.536;18.664;2023-02-18T11:18:04;23.40;35.10
52765;DHT22;38650;44.536;18.664;2023-02-18T11:20:36;23.00;37.70
52765;DHT22;38650;44.536;18.664;2023-02-18T11:25:38;23.50;36.50
52765;DHT22;38650;44.536;18.664;2023-02-18T11:30:38;23.50;35.60
52765;DHT22;38650;44.536;18.664;2023-02-18T11:33:31;23.70;35.30
52765;DHT22;38650;44.536;18.664;2023-02-18T11:35:58;23.70;36.10
52765;DHT22;38650;44.536;18.664;2023-02-18T11:38:36;23.90;36.10
52765;DHT22;38650;44.536;18.664;2023-02-18T11:41:07;23.90;36.70
52765;DHT22;38650;44.536;18.664;2023-02-18T11:43:34;23.60;35.40
52765;DHT22;38650;44.536;18.664;2023-02-18T11:46:18;23.50;36.00
52765;DHT22;38650;44.536;18.664;2023-02-18T11:48:45;23.60;37.90
52765;DHT22;38650;44.536;18.664;2023-02-18T11:53:57;23.60;36.20
52765;DHT22;38650;44.536;18.664;2023-02-18T11:56:26;23.90;36.10
52765;DHT22;38650;44.536;18.664;2023-02-18T11:58:52;24.10;36.50
52765;DHT22;38650;44.536;18.664;2023-02-18T12:01:44;24.00;36.20
52765;DHT22;38650;44.536;18.664;2023-02-18T12:04:16;24.20;35.10
52765;DHT22;38650;44.536;18.664;2023-02-18T12:07:19;24.20;34.20
52765;DHT22;38650;44.536;18.664;2023-02-18T12:09:55;24.10;33.60
52765;DHT22;38650;44.536;18.664;2023-02-18T12:12:29;24.00;33.50
52765;DHT22;38650;44.536;18.664;2023-02-18T12:14:56;24.10;34.10
52765;DHT22;38650;44.536;18.664;2023-02-18T12:20:25;24.00;34.30
52765;DHT22;38650;44.536;18.664;2023-02-18T12:26:20;24.40;34.50
52765;DHT22;38650;44.536;18.664;2023-02-18T12:42:41;24.50;32.10
52765;DHT22;38650;44.536;18.664;2023-02-18T13:06:57;25.30;33.70
52765;DHT22;38650;44.536;18.664;2023-02-18T13:12:27;25.20;32.60
52765;DHT22;38650;44.536;18.664;2023-02-18T13:14:55;25.30;33.70
52765;DHT22;38650;44.536;18.664;2023-02-18T13:17:27;25.60;34.00
52765;DHT22;38650;44.536;18.664;2023-02-18T13:19:58;25.70;33.40
52765;DHT22;38650;44.536;18.664;2023-02-18T13:22:26;25.80;34.90
52765;DHT22;38650;44.536;18.664;2023-02-18T13:24:54;25.90;32.60
52765;DHT22;38650;44.536;18.664;2023-02-18T13:41:02;25.60;31.80
52765;DHT22;38650;44.536;18.664;2023-02-18T13:43:33;25.30;31.20
52765;DHT22;38650;44.536;18.664;2023-02-18T13:46:03;25.40;31.90
52765;DHT22;38650;44.536;18.664;2023-02-18T13:51:07;25.50;33.40
52765;DHT22;38650;44.536;18.664;2023-02-18T13:53:38;25.40;32.70
52765;DHT22;38650;44.536;18.664;2023-02-18T13:59:39;24.60;31.70
52765;DHT22;38650;44.536;18.664;2023-02-18T14:02:19;24.50;32.00
52765;DHT22;38650;44.536;18.664;2023-02-18T14:09:44;24.40;32.80
52765;DHT22;38650;44.536;18.664;2023-02-18T14:14:50;24.10;32.20
52765;DHT22;38650;44.536;18.664;2023-02-18T14:22:26;23.80;34.60
52765;DHT22;38650;44.536;18.664;2023-02-18T14:25:48;23.70;35.80
52765;DHT22;38650;44.536;18.664;2023-02-18T14:27:45;23.30;36.10
52765;DHT22;38650;44.536;18.664;2023-02-18T14:30:24;22.60;38.10
52765;DHT22;38650;44.536;18.664;2023-02-18T14:32:55;21.90;39.90
52765;DHT22;38650;44.536;18.664;2023-02-18T14:46:09;20.40;42.00
52765;DHT22;38650;44.536;18.664;2023-02-18T14:49:07;20.20;42.30
52765;DHT22;38650;44.536;18.664;2023-02-18T14:51:39;20.10;42.00
52765;DHT22;38650;44.536;18.664;2023-02-18T14:54:12;20.00;43.30
52765;DHT22;38650;44.536;18.664;2023-02-18T14:59:35;19.80;43.10
52765;DHT22;38650;44.536;18.664;2023-02-18T15:02:02;19.90;44.10
52765;DHT22;38650;44.536;18.664;2023-02-18T15:04:28;19.70;44.10
52765;DHT22;38650;44.536;18.664;2023-02-18T15:07:02;19.50;44.10
52765;DHT22;38650;44.536;18.664;2023-02-18T15:09:28;19.30;45.60
52765;DHT22;38650;44.536;18.664;2023-02-18T15:12:03;19.10;46.20
52765;DHT22;38650;44.536;18.664;2023-02-18T15:14:35;19.00;46.40
52765;DHT22;38650;44.536;18.664;2023-02-18T15:17:01;18.80;46.40
52765;DHT22;38650;44.536;18.664;2023-02-18T15:19:36;18.60;46.20
52765;DHT22;38650;44.536;18.664;2023-02-18T15:22:03;18.50;46.80
52765;DHT22;38650;44.536;18.664;2023-02-18T15:27:00;18.20;47.50
52765;DHT22;38650;44.536;18.664;2023-02-18T15:29:33;18.00;47.70
52765;DHT22;38650;44.536;18.664;2023-02-18T15:31:59;17.80;47.70
52765;DHT22;38650;44.536;18.664;2023-02-18T15:36:55;17.50;48.00
52765;DHT22;38650;44.536;18.664;2023-02-18T15:39:22;17.30;48.60
52765;DHT22;38650;44.536;18.664;2023-02-18T15:41:55;17.20;48.90
52765;DHT22;38650;44.536;18.664;2023-02-18T15:44:24;17.40;47.30
52765;DHT22;38650;44.536;18.664;2023-02-18T15:46:50;17.50;47.90
52765;DHT22;38650;44.536;18.664;2023-02-18T15:49:20;17.50;47.70
52765;DHT22;38650;44.536;18.664;2023-02-18T15:51:47;17.60;48.10
52765;DHT22;38650;44.536;18.664;2023-02-18T15:54:16;17.60;47.40
52765;DHT22;38650;44.536;18.664;2023-02-18T15:56:45;17.60;47.40
52765;DHT22;38650;44.536;18.664;2023-02-18T15:59:18;17.50;47.40
52765;DHT22;38650;44.536;18.664;2023-02-18T16:02:07;17.40;47.70
52765;DHT22;38650;44.536;18.664;2023-02-18T16:04:39;17.30;48.10
52765;DHT22;38650;44.536;18.664;2023-02-18T16:10:07;17.00;48.30
52765;DHT22;38650;44.536;18.664;2023-02-18T16:12:36;16.80;48.80
52765;DHT22;38650;44.536;18.664;2023-02-18T16:15:03;16.70;48.80
52765;DHT22;38650;44.536;18.664;2023-02-18T16:17:29;16.60;49.00
52765;DHT22;38650;44.536;18.664;2023-02-18T16:19:59;16.50;49.10
52765;DHT22;38650;44.536;18.664;2023-02-18T16:22:36;16.40;49.30
52765;DHT22;38650;44.536;18.664;2023-02-18T16:25:15;16.20;49.90
52765;DHT22;38650;44.536;18.664;2023-02-18T16:30:29;15.90;50.80
52765;DHT22;38650;44.536;18.664;2023-02-18T16:32:55;15.80;50.80
52765;DHT22;38650;44.536;18.664;2023-02-18T16:35:24;15.80;50.60
52765;DHT22;38650;44.536;18.664;2023-02-18T16:37:52;15.90;50.60
52765;DHT22;38650;44.536;18.664;2023-02-18T16:40:30;15.90;50.80
52765;DHT22;38650;44.536;18.664;2023-02-18T16:43:05;15.90;50.70
52765;DHT22;38650;44.536;18.664;2023-02-18T16:45:43;15.80;51.30
52765;DHT22;38650;44.536;18.664;2023-02-18T16:48:32;15.60;51.80
52765;DHT22;38650;44.536;18.664;2023-02-18T16:51:21;15.50;51.80
52765;DHT22;38650;44.536;18.664;2023-02-18T16:53:47;15.30;52.20
52765;DHT22;38650;44.536;18.664;2023-02-18T16:56:15;15.30;51.80
52765;DHT22;38650;44.536;18.664;2023-02-18T16:58:41;15.50;51.70
52765;DHT22;38650;44.536;18.664;2023-02-18T17:01:23;15.70;52.50
52765;DHT22;38650;44.536;18.664;2023-02-18T17:03:49;15.50;53.20
52765;DHT22;38650;44.536;18.664;2023-02-18T17:06:15;15.20;53.50
52765;DHT22;38650;44.536;18.664;2023-02-18T17:08:41;15.10;54.10
52765;DHT22;38650;44.536;18.664;2023-02-18T17:14:13;14.70;54.40
52765;DHT22;38650;44.536;18.664;2023-02-18T17:16:43;14.90;53.30
52765;DHT22;38650;44.536;18.664;2023-02-18T17:19:08;15.00;54.30
52765;DHT22;38650;44.536;18.664;2023-02-18T17:21:34;15.00;54.30
52765;DHT22;38650;44.536;18.664;2023-02-18T17:24:00;14.90;54.20
52765;DHT22;38650;44.536;18.664;2023-02-18T17:26:28;14.80;54.70
52765;DHT22;38650;44.536;18.664;2023-02-18T17:28:56;14.70;54.70
52765;DHT22;38650;44.536;18.664;2023-02-18T17:31:28;14.70;55.00
52765;DHT22;38650;44.536;18.664;2023-02-18T17:33:57;14.60;55.60
52765;DHT22;38650;44.536;18.664;2023-02-18T17:36:24;14.40;55.80
52765;DHT22;38650;44.536;18.664;2023-02-18T17:38:49;14.30;56.60
52765;DHT22;38650;44.536;18.664;2023-02-18T17:41:15;14.10;57.00
52765;DHT22;38650;44.536;18.664;2023-02-18T17:43:41;14.10;57.50
52765;DHT22;38650;44.536;18.664;2023-02-18T17:46:15;13.90;57.70
52765;DHT22;38650;44.536;18.664;2023-02-18T17:48:42;13.80;57.70
52765;DHT22;38650;44.536;18.664;2023-02-18T17:51:22;13.80;57.60
52765;DHT22;38650;44.536;18.664;2023-02-18T17:53:47;13.60;58.00
52765;DHT22;38650;44.536;18.664;2023-02-18T17:56:13;13.60;57.60
52765;DHT22;38650;44.536;18.664;2023-02-18T17:58:39;13.60;58.00
52765;DHT22;38650;44.536;18.664;2023-02-18T18:01:04;13.60;58.00
52765;DHT22;38650;44.536;18.664;2023-02-18T18:03:30;13.50;58.90
52765;DHT22;38650;44.536;18.664;2023-02-18T18:05:56;13.50;59.00
52765;DHT22;38650;44.536;18.664;2023-02-18T18:08:22;13.50;58.30
52765;DHT22;38650;44.536;18.664;2023-02-18T18:10:56;13.50;58.20
52765;DHT22;38650;44.536;18.664;2023-02-18T18:13:30;13.60;57.90
52765;DHT22;38650;44.536;18.664;2023-02-18T18:15:59;13.70;58.00
52765;DHT22;38650;44.536;18.664;2023-02-18T18:18:26;13.80;58.00
52765;DHT22;38650;44.536;18.664;2023-02-18T18:20:55;13.80;57.80
52765;DHT22;38650;44.536;18.664;2023-02-18T18:23:21;13.70;58.40
52765;DHT22;38650;44.536;18.664;2023-02-18T18:25:51;13.50;59.10
52765;DHT22;38650;44.536;18.664;2023-02-18T18:28:18;13.20;60.10